createdAt,value
2023-10-02T00:02:37.833Z,24.45
2023-10-02T00:05:07.357Z,14.88
2023-10-02T00:07:35.001Z,13.40
2023-10-02T00:10:02.802Z,18.05
2023-10-02T00:12:32.442Z,17.50
2023-10-02T00:14:59.976Z,14.25
2023-10-02T00:17:26.776Z,16.38
2023-10-02T00:20:14.482Z,15.23
2023-10-02T00:22:44.148Z,17.58
2023-10-02T00:25:17.804Z,16.15
2023-10-02T00:27:51.259Z,20.17
2023-10-02T00:30:22.119Z,17.45
2023-10-02T00:32:50.710Z,22.08
2023-10-02T00:35:17.613Z,17.73
2023-10-02T00:37:56.245Z,18.15
2023-10-02T00:40:28.074Z,20.08
2023-10-02T00:42:57.049Z,20.52
2023-10-02T00:45:25.405Z,17.00
2023-10-02T00:47:54.358Z,21.08
2023-10-02T00:50:23.506Z,22.35
2023-10-02T00:52:58.019Z,18.08
2023-10-02T00:55:31.901Z,19.40
2023-10-02T00:57:59.169Z,16.00
2023-10-02T01:00:37.215Z,19.65
2023-10-02T01:03:16.770Z,20.67
2023-10-02T01:05:52.189Z,19.35
2023-10-02T01:08:26.798Z,18.05
2023-10-02T01:11:03.788Z,16.67
2023-10-02T01:13:36.422Z,18.15
2023-10-02T01:16:12.441Z,20.23
2023-10-02T01:18:42.749Z,16.08
2023-10-02T01:21:12.997Z,18.02
2023-10-02T01:24:09.176Z,26.67
2023-10-02T01:26:43.048Z,15.82
2023-10-02T01:29:12.531Z,16.35
2023-10-02T01:31:43.966Z,13.85
2023-10-02T01:34:14.160Z,14.50
2023-10-02T01:36:42.747Z,18.10
2023-10-02T01:39:14.850Z,21.55
2023-10-02T01:41:42.744Z,19.83
2023-10-02T01:44:12.964Z,17.52
2023-10-02T01:46:51.312Z,16.58
2023-10-02T01:49:25.820Z,24.65
2023-10-02T01:51:56.625Z,18.25
2023-10-02T01:54:24.303Z,17.33
2023-10-02T01:56:53.354Z,14.05
2023-10-02T01:59:25.892Z,20.80
2023-10-02T02:01:55.496Z,20.83
2023-10-02T02:04:30.685Z,22.60
2023-10-02T02:06:59.319Z,16.05
2023-10-02T02:09:38.398Z,14.20
2023-10-02T02:12:08.013Z,17.40
2023-10-02T02:14:51.709Z,15.10
2023-10-02T02:17:22.677Z,14.93
2023-10-02T02:19:52.401Z,17.15
2023-10-02T02:22:28.237Z,20.13
2023-10-02T02:24:59.168Z,14.02
2023-10-02T02:29:56.018Z,13.15
2023-10-02T02:32:37.709Z,15.00
2023-10-02T02:35:06.366Z,19.70
2023-10-02T02:37:34.369Z,22.33
2023-10-02T02:40:21.524Z,18.33
2023-10-02T02:42:53.210Z,14.93
2023-10-02T02:45:31.348Z,15.00
2023-10-02T02:48:06.236Z,13.20
2023-10-02T02:50:38.211Z,15.07
2023-10-02T02:53:18.628Z,14.30
2023-10-02T02:55:46.013Z,13.00
2023-10-02T02:58:13.590Z,14.77
2023-10-02T03:00:41.221Z,18.90
2023-10-02T03:03:27.526Z,17.05
2023-10-02T03:05:54.396Z,14.00
2023-10-02T03:08:21.107Z,14.40
2023-10-02T03:10:48.223Z,14.27
2023-10-02T03:13:18.330Z,16.92
2023-10-02T03:15:49.719Z,14.13
2023-10-02T03:18:24.719Z,11.82
2023-10-02T03:20:52.163Z,14.45
2023-10-02T03:23:19.606Z,13.52
2023-10-02T03:25:48.710Z,16.25
2023-10-02T03:28:33.550Z,14.30
2023-10-02T03:31:01.982Z,11.52
2023-10-02T03:33:32.471Z,12.73
2023-10-02T03:36:04.760Z,12.27
2023-10-02T03:38:34.739Z,12.70
2023-10-02T03:41:03.481Z,14.50
2023-10-02T03:43:35.664Z,14.57
2023-10-02T03:46:15.008Z,15.32
2023-10-02T03:48:42.426Z,12.60
2023-10-02T03:51:09.971Z,14.60
2023-10-02T03:53:36.836Z,14.18
2023-10-02T03:56:26.400Z,14.85
2023-10-02T03:58:54.446Z,18.70
2023-10-02T04:01:31.045Z,14.77
2023-10-02T04:04:17.185Z,12.27
2023-10-02T04:06:44.612Z,19.23
2023-10-02T04:09:15.339Z,14.82
2023-10-02T04:11:43.614Z,13.60
2023-10-02T04:14:20.137Z,16.50
2023-10-02T04:16:50.000Z,12.90
2023-10-02T04:19:17.845Z,11.52
2023-10-02T04:21:48.626Z,14.48
2023-10-02T04:24:15.699Z,14.27
2023-10-02T04:26:46.053Z,13.90
2023-10-02T04:29:24.948Z,12.60
2023-10-02T04:32:10.427Z,16.98
2023-10-02T04:34:47.315Z,13.43
2023-10-02T04:37:21.928Z,11.85
2023-10-02T04:39:55.065Z,13.90
2023-10-02T04:42:30.460Z,17.88
2023-10-02T04:45:00.960Z,21.50
2023-10-02T04:47:29.435Z,16.27
2023-10-02T04:50:04.329Z,17.27
2023-10-02T04:52:54.391Z,15.40
2023-10-02T04:55:41.277Z,15.05
2023-10-02T04:58:14.739Z,13.43
2023-10-02T05:01:04.982Z,14.93
2023-10-02T05:06:17.868Z,16.58
2023-10-02T05:08:54.373Z,16.38
2023-10-02T05:11:28.174Z,15.35
2023-10-02T05:13:58.463Z,19.30
2023-10-02T05:16:36.629Z,14.35
2023-10-02T05:19:11.143Z,13.80
2023-10-02T05:21:50.636Z,13.30
2023-10-02T05:24:20.637Z,20.05
2023-10-02T05:26:48.518Z,22.13
2023-10-02T05:29:36.836Z,20.15
2023-10-02T05:32:20.575Z,17.33
2023-10-02T05:35:06.588Z,15.02
2023-10-02T05:37:35.336Z,14.02
2023-10-02T05:40:21.268Z,16.45
2023-10-02T05:43:02.880Z,24.73
2023-10-02T05:45:41.504Z,17.23
2023-10-02T05:48:16.447Z,15.27
2023-10-02T05:50:49.769Z,21.83
2023-10-02T05:53:17.173Z,15.05
2023-10-02T05:56:03.491Z,14.05
2023-10-02T05:58:33.690Z,18.13
2023-10-02T06:01:05.762Z,14.90
2023-10-02T06:03:37.829Z,16.50
2023-10-02T06:06:19.679Z,14.30
2023-10-02T06:09:03.114Z,15.43
2023-10-02T06:11:34.953Z,13.23
2023-10-02T06:14:12.060Z,13.88
2023-10-02T06:16:42.000Z,16.45
2023-10-02T06:19:14.294Z,19.92
2023-10-02T06:21:59.010Z,20.85
2023-10-02T06:24:29.597Z,16.63
2023-10-02T06:29:36.710Z,22.95
2023-10-02T06:32:11.366Z,17.90
2023-10-02T06:34:40.928Z,12.35
2023-10-02T06:37:14.386Z,13.00
2023-10-02T06:39:43.146Z,16.10
2023-10-02T06:42:11.575Z,16.63
2023-10-02T06:44:53.908Z,18.60
2023-10-02T06:47:30.572Z,15.65
2023-10-02T06:50:05.520Z,14.50
2023-10-02T06:52:33.797Z,12.68
2023-10-02T06:55:02.507Z,16.10
2023-10-02T06:57:29.799Z,14.63
2023-10-02T06:59:57.811Z,16.88
2023-10-02T07:02:28.228Z,12.75
2023-10-02T07:04:56.492Z,12.68
2023-10-02T07:07:33.864Z,10.88
2023-10-02T07:10:11.452Z,15.75
2023-10-02T07:12:42.360Z,20.25
2023-10-02T07:17:50.798Z,13.50
2023-10-02T07:20:23.138Z,15.68
2023-10-02T07:22:53.099Z,20.13
2023-10-02T07:25:25.572Z,15.48
2023-10-02T07:27:53.144Z,14.57
2023-10-02T07:30:30.737Z,15.43
2023-10-02T07:33:05.077Z,19.83
2023-10-02T07:35:32.167Z,15.02
2023-10-02T07:38:01.988Z,15.88
2023-10-02T07:40:47.852Z,19.23
2023-10-02T07:43:22.165Z,12.00
2023-10-02T07:46:03.472Z,16.70
2023-10-02T07:48:37.325Z,13.77
2023-10-02T07:51:07.787Z,15.90
2023-10-02T07:53:40.524Z,25.95
2023-10-02T07:56:12.951Z,16.30
2023-10-02T07:58:40.313Z,16.73
2023-10-02T08:01:13.901Z,15.23
2023-10-02T08:03:45.755Z,19.60
2023-10-02T08:06:23.379Z,15.45
2023-10-02T08:09:14.497Z,14.10
2023-10-02T08:11:42.842Z,18.30
2023-10-02T08:14:33.370Z,22.77
2023-10-02T08:17:00.261Z,20.65
2023-10-02T08:19:27.371Z,20.02
2023-10-02T08:21:54.436Z,20.38
2023-10-02T08:24:22.004Z,20.40
2023-10-02T08:26:48.973Z,17.30
2023-10-02T08:29:17.266Z,19.88
2023-10-02T08:31:50.937Z,26.88
2023-10-02T08:34:25.326Z,24.85
2023-10-02T08:37:09.234Z,19.90
2023-10-02T08:39:37.813Z,20.25
2023-10-02T08:42:15.096Z,27.73
2023-10-02T08:44:43.079Z,21.75
2023-10-02T08:47:25.363Z,22.38
2023-10-02T08:50:05.615Z,23.55
2023-10-02T08:52:39.868Z,26.40
2023-10-02T08:55:37.354Z,20.15
2023-10-02T08:58:17.099Z,18.48
2023-10-02T09:01:07.178Z,19.65
2023-10-02T09:03:44.319Z,19.58
2023-10-02T09:06:27.002Z,24.85
2023-10-02T09:09:12.691Z,18.92
2023-10-02T09:11:40.660Z,21.55
2023-10-02T09:14:41.240Z,25.40
2023-10-02T09:17:15.599Z,26.83
2023-10-02T09:19:49.765Z,30.60
2023-10-02T09:22:18.198Z,19.67
2023-10-02T09:24:59.754Z,27.95
2023-10-02T09:27:29.132Z,31.00
2023-10-02T09:30:17.043Z,26.02
2023-10-02T09:32:59.858Z,23.45
2023-10-02T09:38:33.663Z,27.00
2023-10-02T09:41:04.714Z,17.48
2023-10-02T09:43:33.236Z,28.95
2023-10-02T09:46:08.163Z,20.52
2023-10-02T09:49:05.183Z,24.05
2023-10-02T09:52:16.524Z,22.52
2023-10-02T09:57:26.758Z,22.88
2023-10-02T09:59:55.950Z,26.30
2023-10-02T10:02:23.746Z,20.52
2023-10-02T10:05:08.820Z,22.33
2023-10-02T10:07:53.631Z,30.23
2023-10-02T10:10:59.079Z,24.75
2023-10-02T10:13:27.802Z,17.83
2023-10-02T10:16:20.008Z,20.48
2023-10-02T10:19:16.379Z,18.83
2023-10-02T10:22:05.602Z,23.02
2023-10-02T10:24:52.478Z,21.73
2023-10-02T10:27:56.022Z,23.33
2023-10-02T10:30:23.278Z,25.33
2023-10-02T10:33:11.619Z,24.23
2023-10-02T10:35:53.356Z,22.17
2023-10-02T10:38:38.545Z,24.45
2023-10-02T10:41:10.794Z,15.63
2023-10-02T10:43:57.108Z,23.08
2023-10-02T10:46:25.641Z,28.98
2023-10-02T10:49:17.170Z,22.33
2023-10-02T10:51:44.447Z,23.98
2023-10-02T10:54:36.186Z,26.55
2023-10-02T10:57:28.300Z,22.42
2023-10-02T11:00:28.454Z,24.83
2023-10-02T11:03:11.677Z,17.05
2023-10-02T11:05:40.843Z,21.17
2023-10-02T11:08:27.347Z,21.35
2023-10-02T11:11:21.394Z,19.52
2023-10-02T11:13:54.717Z,27.38
2023-10-02T11:16:36.695Z,20.95
2023-10-02T11:19:15.543Z,18.50
2023-10-02T11:22:16.421Z,20.30
2023-10-02T11:25:20.204Z,18.83
2023-10-02T11:27:59.908Z,26.17
2023-10-02T11:30:33.005Z,17.30
2023-10-02T11:33:01.089Z,21.92
2023-10-02T11:35:31.590Z,26.73
2023-10-02T11:37:58.903Z,21.05
2023-10-02T11:40:26.543Z,17.75
2023-10-02T11:42:53.529Z,27.92
2023-10-02T11:45:20.836Z,18.08
2023-10-02T11:47:49.962Z,21.90
2023-10-02T11:50:17.564Z,20.45
2023-10-02T11:52:45.215Z,21.42
2023-10-02T11:55:12.534Z,29.92
2023-10-02T11:57:39.291Z,22.00
2023-10-02T12:00:10.204Z,22.30
2023-10-02T12:02:37.181Z,19.20
2023-10-02T12:05:04.534Z,21.45
2023-10-02T12:07:31.255Z,26.13
2023-10-02T12:09:58.853Z,22.50
2023-10-02T12:12:26.540Z,33.30
2023-10-02T12:14:53.279Z,36.00
2023-10-02T12:17:20.158Z,24.00
2023-10-02T12:19:47.908Z,27.23
2023-10-02T12:22:15.884Z,31.33
2023-10-02T12:24:42.897Z,37.75
2023-10-02T12:27:13.263Z,37.28
2023-10-02T12:29:41.712Z,23.35
2023-10-02T12:32:11.225Z,25.40
2023-10-02T12:34:39.179Z,43.05
2023-10-02T12:37:06.769Z,25.73
2023-10-02T12:39:34.198Z,26.40
2023-10-02T12:42:00.921Z,25.55
2023-10-02T12:44:30.481Z,29.42
2023-10-02T12:46:57.331Z,30.73
2023-10-02T12:49:24.345Z,31.45
2023-10-02T12:51:51.862Z,25.67
2023-10-02T12:54:20.380Z,26.83
2023-10-02T12:56:47.497Z,25.65
2023-10-02T12:59:15.379Z,33.83
2023-10-02T13:01:42.865Z,25.73
2023-10-02T13:04:09.878Z,27.23
2023-10-02T13:06:36.749Z,28.30
2023-10-02T13:09:16.368Z,30.65
2023-10-02T13:11:45.900Z,24.88
2023-10-02T13:14:20.232Z,26.77
2023-10-02T13:16:49.569Z,25.00
2023-10-02T13:19:17.677Z,29.67
2023-10-02T13:21:46.019Z,33.17
2023-10-02T13:24:16.627Z,27.33
2023-10-02T13:26:44.076Z,25.83
2023-10-02T13:29:11.112Z,30.70
2023-10-02T13:31:38.204Z,27.33
2023-10-02T13:34:07.783Z,33.55
2023-10-02T13:36:35.346Z,31.80
2023-10-02T13:39:06.302Z,29.00
2023-10-02T13:44:05.005Z,31.10
2023-10-02T13:46:31.860Z,29.45
2023-10-02T13:48:59.870Z,30.02
2023-10-02T13:51:26.762Z,28.75
2023-10-02T13:53:54.695Z,32.85
2023-10-02T13:56:27.888Z,38.58
2023-10-02T13:58:55.054Z,25.80
2023-10-02T14:01:26.211Z,33.90
2023-10-02T14:03:54.598Z,37.38
2023-10-02T14:06:24.425Z,37.38
2023-10-02T14:08:52.092Z,36.37
2023-10-02T14:11:20.251Z,29.33
2023-10-02T14:13:50.718Z,27.17
2023-10-02T14:16:22.192Z,36.13
2023-10-02T14:18:54.228Z,37.95
2023-10-02T14:21:25.217Z,34.83
2023-10-02T14:23:54.092Z,35.60
2023-10-02T14:26:23.394Z,32.55
2023-10-02T14:28:52.446Z,30.60
2023-10-02T14:31:24.059Z,31.65
2023-10-02T14:33:51.929Z,36.40
2023-10-02T14:36:18.761Z,34.10
2023-10-02T14:38:45.464Z,43.15
2023-10-02T14:41:12.323Z,29.88
2023-10-02T14:43:39.107Z,31.85
2023-10-02T14:46:06.105Z,37.47
2023-10-02T14:48:45.977Z,33.58
2023-10-02T14:51:13.557Z,35.17
2023-10-02T14:53:41.318Z,33.25
2023-10-02T14:56:08.479Z,36.60
2023-10-02T14:58:36.256Z,38.30
2023-10-02T15:01:13.477Z,38.58
2023-10-02T15:03:41.481Z,45.70
2023-10-02T15:06:12.255Z,39.15
2023-10-02T15:08:40.029Z,41.13
2023-10-02T15:11:07.280Z,39.53
2023-10-02T15:13:34.936Z,36.65
2023-10-02T15:16:02.185Z,42.08
2023-10-02T15:18:29.042Z,30.30
2023-10-02T15:20:56.746Z,39.50
2023-10-02T15:23:23.768Z,33.78
2023-10-02T15:25:54.574Z,29.75
2023-10-02T15:28:23.469Z,32.80
2023-10-02T15:30:50.673Z,40.45
2023-10-02T15:33:17.723Z,35.60
2023-10-02T15:35:44.818Z,31.30
2023-10-02T15:38:12.949Z,33.63
2023-10-02T15:40:43.683Z,31.77
2023-10-02T15:43:10.637Z,37.00
2023-10-02T15:45:37.816Z,34.65
2023-10-02T15:48:05.423Z,34.05
2023-10-02T15:50:35.223Z,39.75
2023-10-02T15:53:02.476Z,26.83
2023-10-02T15:55:30.252Z,44.47
2023-10-02T15:57:57.327Z,30.92
2023-10-02T16:00:27.160Z,31.98
2023-10-02T16:02:56.830Z,28.88
2023-10-02T16:05:26.152Z,33.22
2023-10-02T16:07:53.343Z,31.75
2023-10-02T16:10:25.254Z,24.45
2023-10-02T16:12:53.415Z,30.00
2023-10-02T16:15:25.851Z,32.88
2023-10-02T16:18:00.065Z,35.80
2023-10-02T16:20:28.243Z,32.97
2023-10-02T16:23:00.618Z,33.90
2023-10-02T16:25:29.726Z,31.67
2023-10-02T16:27:57.225Z,33.55
2023-10-02T16:30:25.847Z,34.70
2023-10-02T16:32:55.081Z,32.75
2023-10-02T16:35:33.518Z,33.45
2023-10-02T16:38:06.434Z,32.95
2023-10-02T16:40:34.155Z,49.20
2023-10-02T16:43:05.322Z,33.22
2023-10-02T16:45:33.210Z,26.83
2023-10-02T16:48:03.843Z,31.50
2023-10-02T16:50:31.714Z,26.13
2023-10-02T16:52:58.963Z,42.95
2023-10-02T16:55:28.383Z,31.77
2023-10-02T16:57:57.165Z,28.45
2023-10-02T17:00:26.171Z,32.13
2023-10-02T17:02:53.532Z,35.13
2023-10-02T17:05:21.061Z,29.55
2023-10-02T17:07:51.617Z,32.28
2023-10-02T17:10:24.795Z,27.55
2023-10-02T17:12:56.143Z,33.97
2023-10-02T17:15:23.148Z,37.90
2023-10-02T17:17:51.168Z,35.80
2023-10-02T17:20:20.472Z,29.45
2023-10-02T17:22:49.118Z,31.38
2023-10-02T17:25:27.968Z,34.22
2023-10-02T17:28:01.196Z,33.50
2023-10-02T17:30:28.669Z,38.83
2023-10-02T17:32:58.999Z,39.15
2023-10-02T17:35:26.969Z,33.50
2023-10-02T17:37:55.384Z,38.95
2023-10-02T17:40:24.231Z,39.08
2023-10-02T17:42:51.977Z,31.10
2023-10-02T17:45:18.992Z,35.00
2023-10-02T17:47:46.636Z,41.42
2023-10-02T17:50:15.243Z,38.00
2023-10-02T17:52:44.901Z,28.75
2023-10-02T17:55:11.792Z,40.58
2023-10-02T17:57:38.825Z,41.65
2023-10-02T18:00:06.165Z,37.65
2023-10-02T18:02:36.096Z,44.13
2023-10-02T18:05:04.544Z,30.87
2023-10-02T18:07:32.329Z,41.42
2023-10-02T18:09:59.262Z,36.78
2023-10-02T18:12:26.420Z,36.67
2023-10-02T18:14:53.286Z,44.53
2023-10-02T18:17:20.406Z,43.08
2023-10-02T18:19:48.333Z,39.33
2023-10-02T18:22:15.963Z,42.63
2023-10-02T18:24:42.945Z,46.50
2023-10-02T18:27:09.713Z,39.78
2023-10-02T18:29:36.441Z,48.15
2023-10-02T18:32:03.523Z,33.03
2023-10-02T18:34:43.006Z,42.00
2023-10-02T18:37:12.237Z,43.03
2023-10-02T18:39:39.422Z,41.05
2023-10-02T18:42:06.453Z,35.55
2023-10-02T18:44:37.459Z,44.50
2023-10-02T18:49:36.807Z,42.65
2023-10-02T18:52:04.801Z,40.20
2023-10-02T18:54:32.333Z,49.55
2023-10-02T18:57:00.488Z,42.78
2023-10-02T18:59:27.622Z,48.33
2023-10-02T19:01:54.476Z,38.85
2023-10-02T19:04:24.464Z,44.47
2023-10-02T19:06:51.271Z,43.88
2023-10-02T19:09:21.926Z,53.70
2023-10-02T19:11:48.995Z,43.95
2023-10-02T19:14:16.702Z,35.17
2023-10-02T19:16:43.684Z,41.60
2023-10-02T19:19:10.539Z,41.25
2023-10-02T19:21:37.371Z,39.47
2023-10-02T19:24:05.149Z,43.70
2023-10-02T19:26:35.046Z,40.65
2023-10-02T19:29:02.783Z,41.72
2023-10-02T19:31:31.201Z,50.33
2023-10-02T19:33:58.656Z,46.05
2023-10-02T19:36:25.542Z,45.22
2023-10-02T19:38:52.399Z,52.72
2023-10-02T19:41:20.359Z,52.45
2023-10-02T19:43:53.812Z,54.55
2023-10-02T19:46:20.982Z,48.22
2023-10-02T19:48:49.986Z,39.65
2023-10-02T19:51:16.886Z,45.97
2023-10-02T19:53:44.464Z,49.55
2023-10-02T19:56:14.154Z,54.38
2023-10-02T19:58:41.163Z,47.72
2023-10-02T20:01:07.999Z,43.20
2023-10-02T20:03:37.946Z,51.15
2023-10-02T20:06:09.700Z,43.50
2023-10-02T20:08:37.489Z,52.20
2023-10-02T20:11:05.382Z,47.25
2023-10-02T20:13:36.400Z,40.00
2023-10-02T20:16:04.605Z,50.88
2023-10-02T20:18:31.542Z,39.78
2023-10-02T20:20:59.315Z,46.95
2023-10-02T20:23:37.170Z,34.20
2023-10-02T20:26:12.659Z,38.35
2023-10-02T20:28:39.487Z,36.65
2023-10-02T20:31:14.385Z,43.85
2023-10-02T20:33:44.152Z,45.05
2023-10-02T20:36:12.670Z,40.80
2023-10-02T20:38:40.207Z,46.97
2023-10-02T20:41:07.173Z,46.15
2023-10-02T20:43:34.057Z,45.15
2023-10-02T20:46:01.458Z,44.85
2023-10-02T20:48:28.533Z,52.38
2023-10-02T20:50:55.822Z,48.78
2023-10-02T20:53:23.142Z,45.33
2023-10-02T20:55:54.321Z,47.30
2023-10-02T20:58:21.132Z,40.13
2023-10-02T21:00:47.951Z,58.55
2023-10-02T21:03:15.195Z,48.83
2023-10-02T21:05:42.136Z,48.30
2023-10-02T21:08:10.056Z,50.33
2023-10-02T21:10:37.446Z,40.30
2023-10-02T21:13:04.547Z,53.88
2023-10-02T21:15:31.327Z,56.95
2023-10-02T21:17:58.210Z,39.35
2023-10-02T21:20:25.200Z,51.30
2023-10-02T21:22:54.947Z,50.45
2023-10-02T21:25:22.231Z,56.67
2023-10-02T21:27:49.197Z,48.60
2023-10-02T21:30:15.942Z,42.85
2023-10-02T21:32:43.390Z,39.38
2023-10-02T21:35:12.452Z,44.63
2023-10-02T21:37:39.473Z,43.95
2023-10-02T21:40:07.660Z,45.75
2023-10-02T21:42:35.765Z,78.45
2023-10-02T21:45:05.293Z,70.57
2023-10-02T21:47:32.702Z,66.95
2023-10-02T21:50:00.049Z,61.92
2023-10-02T21:52:26.998Z,37.58
2023-10-02T21:54:55.426Z,44.15
2023-10-02T21:57:23.947Z,66.95
2023-10-02T21:59:51.775Z,57.35
2023-10-02T22:02:19.909Z,66.57
2023-10-02T22:04:48.091Z,57.17
2023-10-02T22:07:16.019Z,67.35
2023-10-02T22:09:42.919Z,60.53
2023-10-02T22:12:09.647Z,49.35
2023-10-02T22:14:36.648Z,54.30
2023-10-02T22:17:09.127Z,55.47
2023-10-02T22:19:38.237Z,49.63
2023-10-02T22:22:06.994Z,45.17
2023-10-02T22:24:34.690Z,40.47
2023-10-02T22:27:01.989Z,48.92
2023-10-02T22:29:31.243Z,39.72
2023-10-02T22:31:58.662Z,36.22
2023-10-02T22:34:40.291Z,34.47
2023-10-02T22:37:08.743Z,36.55
2023-10-02T22:39:35.731Z,29.40
2023-10-02T22:42:02.766Z,34.97
2023-10-02T22:44:30.148Z,47.92
2023-10-02T22:46:57.540Z,48.13
2023-10-02T22:49:25.027Z,38.72
2023-10-02T22:51:52.191Z,50.85
2023-10-02T22:54:20.027Z,47.35
2023-10-02T22:56:47.709Z,33.42
2023-10-02T22:59:14.600Z,40.83
2023-10-02T23:01:41.343Z,35.35
2023-10-02T23:04:11.350Z,41.85
2023-10-02T23:06:38.380Z,43.35
2023-10-02T23:09:05.637Z,45.25
2023-10-02T23:11:32.627Z,39.33
2023-10-02T23:14:00.666Z,37.92
2023-10-02T23:16:27.503Z,35.45
2023-10-02T23:18:54.279Z,42.03
2023-10-02T23:21:22.046Z,36.53
2023-10-02T23:23:50.232Z,49.13
2023-10-02T23:26:18.270Z,39.17
2023-10-02T23:28:45.520Z,32.00
2023-10-02T23:31:12.689Z,40.10
2023-10-02T23:33:40.710Z,34.00
2023-10-02T23:36:11.506Z,40.90
2023-10-02T23:38:43.354Z,38.25
2023-10-02T23:41:11.284Z,39.03
2023-10-02T23:43:38.286Z,32.95
2023-10-02T23:46:05.328Z,41.53
2023-10-02T23:48:36.422Z,41.97
2023-10-02T23:51:05.012Z,36.90
2023-10-02T23:53:39.221Z,32.53
2023-10-02T23:56:10.128Z,37.47
2023-10-02T23:58:40.237Z,32.50
